createdAt,value
2023-05-20T00:01:32.226Z,17.03
2023-05-20T00:02:41.387Z,16.86
2023-05-20T00:05:05.979Z,17.17
2023-05-20T00:07:32.063Z,17.42
2023-05-20T00:09:55.968Z,17.32
2023-05-20T00:12:22.514Z,17.35
2023-05-20T00:14:47.103Z,17.20
2023-05-20T00:17:11.773Z,17.14
2023-05-20T00:19:36.436Z,17.07
2023-05-20T00:22:01.660Z,17.14
2023-05-20T00:24:25.751Z,17.22
2023-05-20T00:26:49.453Z,17.13
2023-05-20T00:29:13.566Z,17.08
2023-05-20T00:31:38.135Z,16.93
2023-05-20T00:34:04.754Z,17.00
2023-05-20T00:36:28.918Z,16.82
2023-05-20T00:38:54.398Z,16.92
2023-05-20T00:41:19.434Z,16.85
2023-05-20T00:43:44.313Z,16.79
2023-05-20T00:44:54.071Z,16.65
2023-05-20T00:47:20.674Z,16.65
2023-05-20T00:49:52.026Z,16.65
2023-05-20T00:52:18.754Z,16.84
2023-05-20T00:54:45.748Z,16.87
2023-05-20T00:55:55.501Z,16.94
2023-05-20T00:58:22.163Z,16.77
2023-05-20T00:59:31.426Z,16.52
2023-05-20T01:01:57.196Z,16.78
2023-05-20T01:04:23.299Z,16.78
2023-05-20T01:06:50.243Z,16.70
2023-05-20T01:08:00.295Z,16.57
2023-05-20T01:09:10.132Z,16.49
2023-05-20T01:10:20.367Z,16.38
2023-05-20T01:12:53.294Z,16.41
2023-05-20T01:15:23.825Z,16.27
2023-05-20T01:17:53.956Z,16.34
2023-05-20T01:20:22.759Z,16.29
2023-05-20T01:21:34.479Z,16.34
2023-05-20T01:24:11.034Z,16.52
2023-05-20T01:26:38.788Z,16.46
2023-05-20T01:29:07.744Z,16.68
2023-05-20T01:31:37.535Z,16.56
2023-05-20T01:34:11.487Z,16.28
2023-05-20T01:36:39.226Z,16.27
2023-05-20T01:39:05.014Z,16.42
2023-05-20T01:41:35.929Z,16.28
2023-05-20T01:44:02.998Z,16.18
2023-05-20T01:45:12.702Z,16.04
2023-05-20T01:47:38.248Z,16.22
2023-05-20T01:48:53.666Z,15.91
2023-05-20T01:51:19.260Z,15.90
2023-05-20T01:53:56.011Z,15.87
2023-05-20T01:55:06.750Z,15.78
2023-05-20T01:57:31.425Z,16.02
2023-05-20T01:59:55.440Z,16.21
2023-05-20T02:02:21.022Z,16.09
2023-05-20T02:04:49.738Z,16.02
2023-05-20T02:07:17.018Z,16.05
2023-05-20T02:08:26.321Z,16.08
2023-05-20T02:10:50.321Z,16.07
2023-05-20T02:12:00.509Z,15.95
2023-05-20T02:14:25.597Z,16.09
2023-05-20T02:16:50.163Z,15.99
2023-05-20T02:18:03.582Z,15.95
2023-05-20T02:19:13.263Z,15.90
2023-05-20T02:20:24.224Z,15.89
2023-05-20T02:22:49.668Z,16.08
2023-05-20T02:25:13.532Z,15.84
2023-05-20T02:27:39.509Z,15.80
2023-05-20T02:30:06.888Z,15.82
2023-05-20T02:32:34.123Z,15.68
2023-05-20T02:34:59.434Z,15.67
2023-05-20T02:37:26.743Z,15.46
2023-05-20T02:39:51.921Z,15.55
2023-05-20T02:41:01.894Z,15.50
2023-05-20T02:42:11.098Z,15.41
2023-05-20T02:44:36.142Z,15.47
2023-05-20T02:47:01.310Z,15.43
2023-05-20T02:49:27.816Z,15.62
2023-05-20T02:50:40.828Z,15.44
2023-05-20T02:53:07.166Z,15.76
2023-05-20T02:55:36.448Z,15.93
2023-05-20T02:58:01.741Z,15.88
2023-05-20T03:00:31.034Z,15.55
2023-05-20T03:02:57.369Z,15.80
2023-05-20T03:05:22.248Z,15.62
2023-05-20T03:07:49.256Z,15.51
2023-05-20T03:08:59.899Z,15.40
2023-05-20T03:10:10.517Z,15.26
2023-05-20T03:12:37.514Z,15.42
2023-05-20T03:13:46.711Z,15.44
2023-05-20T03:15:05.558Z,15.46
2023-05-20T03:17:32.387Z,15.88
2023-05-20T03:19:56.395Z,16.02
2023-05-20T03:22:22.116Z,15.96
2023-05-20T03:23:32.150Z,15.92
2023-05-20T03:24:43.506Z,15.68
2023-05-20T03:25:55.518Z,15.79
2023-05-20T03:27:05.688Z,15.73
2023-05-20T03:29:33.423Z,15.99
2023-05-20T03:30:42.619Z,15.95
2023-05-20T03:33:07.386Z,15.84
2023-05-20T03:35:33.938Z,15.98
2023-05-20T03:37:59.114Z,16.15
2023-05-20T03:40:24.692Z,16.19
2023-05-20T03:42:52.506Z,16.83
2023-05-20T03:44:02.688Z,16.96
2023-05-20T03:46:27.772Z,16.79
2023-05-20T03:48:52.580Z,17.15
2023-05-20T03:51:17.094Z,17.06
2023-05-20T03:53:43.104Z,17.21
2023-05-20T03:56:08.983Z,17.46
2023-05-20T03:58:34.923Z,17.66
2023-05-20T03:59:44.900Z,17.25
2023-05-20T04:02:10.881Z,17.43
2023-05-20T04:04:56.236Z,17.50
2023-05-20T04:06:05.824Z,17.65
2023-05-20T04:08:30.384Z,18.00
2023-05-20T04:10:58.450Z,18.31
2023-05-20T04:13:25.303Z,18.71
2023-05-20T04:15:51.829Z,19.27
2023-05-20T04:18:20.389Z,19.56
2023-05-20T04:19:39.141Z,19.42
2023-05-20T04:22:24.204Z,19.74
2023-05-20T04:24:49.402Z,19.66
2023-05-20T04:27:17.494Z,19.71
2023-05-20T04:29:45.961Z,20.12
2023-05-20T04:31:00.628Z,20.02
2023-05-20T04:32:11.453Z,20.18
2023-05-20T04:34:37.406Z,20.22
2023-05-20T04:37:03.902Z,20.46
2023-05-20T04:39:28.527Z,20.79
2023-05-20T04:41:57.046Z,20.71
2023-05-20T04:44:24.834Z,20.89
2023-05-20T04:45:35.703Z,20.85
2023-05-20T04:48:03.493Z,21.14
2023-05-20T04:50:28.945Z,21.37
2023-05-20T04:52:53.653Z,21.48
2023-05-20T04:54:02.890Z,21.48
2023-05-20T04:56:27.503Z,21.65
2023-05-20T04:58:56.703Z,21.44
2023-05-20T05:01:23.187Z,21.17
2023-05-20T05:03:49.538Z,21.07
2023-05-20T05:04:59.253Z,21.13
2023-05-20T05:07:25.303Z,21.54
2023-05-20T05:08:35.841Z,21.62
2023-05-20T05:09:44.941Z,21.68
2023-05-20T05:10:55.212Z,21.85
2023-05-20T05:13:21.338Z,21.99
2023-05-20T05:15:45.507Z,21.93
2023-05-20T05:16:55.771Z,21.87
2023-05-20T05:18:05.110Z,21.99
2023-05-20T05:20:31.427Z,22.01
2023-05-20T05:21:40.679Z,21.48
2023-05-20T05:24:14.782Z,21.06
2023-05-20T05:26:39.050Z,21.40
2023-05-20T05:27:50.754Z,21.47
2023-05-20T05:30:14.507Z,21.26
2023-05-20T05:32:38.999Z,21.66
2023-05-20T05:35:03.000Z,21.63
2023-05-20T05:37:27.975Z,22.07
2023-05-20T05:39:52.016Z,21.59
2023-05-20T05:42:16.333Z,21.35
2023-05-20T05:44:40.637Z,21.40
2023-05-20T05:45:50.873Z,21.40
2023-05-20T05:48:15.293Z,21.71
2023-05-20T05:50:41.450Z,21.51
2023-05-20T05:53:07.154Z,21.71
2023-05-20T05:55:33.709Z,21.41
2023-05-20T05:57:58.818Z,21.57
2023-05-20T06:00:23.368Z,21.35
2023-05-20T06:01:34.245Z,21.22
2023-05-20T06:03:59.153Z,21.58
2023-05-20T06:06:26.309Z,21.74
2023-05-20T06:08:50.547Z,21.58
2023-05-20T06:11:16.350Z,21.91
2023-05-20T06:13:41.950Z,22.08
2023-05-20T06:16:07.840Z,21.65
2023-05-20T06:18:32.735Z,22.33
2023-05-20T06:20:59.416Z,22.31
2023-05-20T06:23:29.447Z,21.69
2023-05-20T06:25:58.757Z,21.92
2023-05-20T06:28:22.814Z,22.16
2023-05-20T06:29:31.936Z,22.25
2023-05-20T06:31:56.436Z,21.74
2023-05-20T06:33:06.288Z,21.69
2023-05-20T06:35:34.073Z,22.09
2023-05-20T06:36:43.289Z,22.01
2023-05-20T06:37:53.051Z,22.20
2023-05-20T06:40:18.531Z,22.26
2023-05-20T06:41:27.866Z,22.36
2023-05-20T06:42:36.446Z,22.27
2023-05-20T06:45:01.362Z,22.56
2023-05-20T06:48:01.417Z,22.96
2023-05-20T06:50:28.639Z,23.30
2023-05-20T06:52:52.288Z,22.62
2023-05-20T06:55:16.718Z,22.35
2023-05-20T06:56:27.112Z,22.10
2023-05-20T06:58:52.750Z,22.08
2023-05-20T07:01:19.098Z,22.23
2023-05-20T07:03:44.545Z,22.17
2023-05-20T07:06:09.766Z,22.72
2023-05-20T07:07:20.612Z,22.81
2023-05-20T07:08:30.799Z,22.96
2023-05-20T07:10:57.119Z,22.11
2023-05-20T07:12:08.282Z,22.26
2023-05-20T07:14:32.878Z,23.09
2023-05-20T07:17:05.542Z,23.24
2023-05-20T07:19:29.820Z,23.41
2023-05-20T07:20:39.742Z,22.87
2023-05-20T07:23:05.823Z,23.54
2023-05-20T07:24:20.423Z,23.55
2023-05-20T07:25:30.696Z,23.62
2023-05-20T07:27:55.955Z,23.80
2023-05-20T07:29:07.514Z,23.77
2023-05-20T07:31:32.488Z,23.78
2023-05-20T07:33:58.546Z,23.58
2023-05-20T07:35:09.467Z,23.26
2023-05-20T07:37:35.965Z,22.99
2023-05-20T07:40:00.730Z,23.18
2023-05-20T07:42:26.498Z,23.18
2023-05-20T07:44:52.365Z,22.92
2023-05-20T07:47:16.652Z,22.61
2023-05-20T07:48:26.808Z,22.61
2023-05-20T07:50:53.175Z,22.73
2023-05-20T07:53:17.545Z,22.76
2023-05-20T07:55:43.205Z,21.81
2023-05-20T07:56:54.349Z,21.89
2023-05-20T07:58:03.645Z,21.92
2023-05-20T07:59:14.495Z,21.91
2023-05-20T08:00:26.489Z,21.85
2023-05-20T08:02:50.159Z,21.84
2023-05-20T08:05:16.374Z,22.13
2023-05-20T08:07:41.230Z,22.14
2023-05-20T08:08:54.852Z,21.94
2023-05-20T08:11:22.661Z,22.04
2023-05-20T08:14:09.036Z,21.27
2023-05-20T08:16:37.979Z,21.88
2023-05-20T08:17:47.037Z,21.78
2023-05-20T08:20:12.951Z,22.02
2023-05-20T08:22:37.086Z,22.07
2023-05-20T08:25:01.360Z,22.06
2023-05-20T08:27:25.921Z,21.40
2023-05-20T08:28:36.559Z,21.19
2023-05-20T08:29:46.364Z,20.97
2023-05-20T08:32:18.228Z,21.10
2023-05-20T08:34:42.814Z,21.00
2023-05-20T08:37:06.451Z,21.29
2023-05-20T08:39:30.208Z,21.35
2023-05-20T08:41:54.387Z,21.68
2023-05-20T08:44:22.444Z,21.38
2023-05-20T08:46:49.342Z,21.54
2023-05-20T08:49:13.344Z,21.72
2023-05-20T08:50:24.214Z,21.53
2023-05-20T08:52:52.156Z,21.88
2023-05-20T08:55:23.332Z,22.04
2023-05-20T08:56:33.743Z,21.98
2023-05-20T08:59:01.005Z,22.12
2023-05-20T09:01:29.252Z,22.24
2023-05-20T09:03:56.680Z,21.49
2023-05-20T09:06:21.824Z,21.11
2023-05-20T09:09:08.099Z,21.43
2023-05-20T09:11:33.565Z,21.59
2023-05-20T09:14:07.364Z,21.92
2023-05-20T09:15:17.392Z,21.91
2023-05-20T09:17:42.969Z,22.20
2023-05-20T09:20:20.949Z,22.16
2023-05-20T09:22:46.317Z,22.21
2023-05-20T09:23:59.046Z,22.01
2023-05-20T09:26:30.346Z,21.87
2023-05-20T09:28:59.352Z,22.02
2023-05-20T09:31:33.993Z,21.71
2023-05-20T09:32:42.886Z,21.70
2023-05-20T09:33:52.202Z,21.70
2023-05-20T09:36:21.174Z,21.98
2023-05-20T09:38:47.281Z,22.09
2023-05-20T09:41:15.422Z,22.04
2023-05-20T09:43:45.652Z,22.14
2023-05-20T09:44:58.975Z,22.10
2023-05-20T09:46:08.735Z,22.01
2023-05-20T09:47:18.779Z,22.07
2023-05-20T09:49:44.280Z,21.91
2023-05-20T09:52:13.462Z,22.23
2023-05-20T09:54:41.582Z,22.08
2023-05-20T09:55:51.272Z,22.09
2023-05-20T09:58:17.287Z,21.91
2023-05-20T10:00:42.767Z,22.05
2023-05-20T10:03:06.958Z,21.89
2023-05-20T10:06:59.920Z,21.91
2023-05-20T10:11:21.446Z,21.78
2023-05-20T10:15:30.543Z,21.32
2023-05-20T10:18:23.733Z,21.03
2023-05-20T10:20:50.515Z,21.39
2023-05-20T10:23:24.362Z,21.55
2023-05-20T10:26:01.948Z,21.73
2023-05-20T10:28:38.235Z,21.72
2023-05-20T10:29:57.532Z,21.61
2023-05-20T10:32:34.422Z,21.36
2023-05-20T10:35:09.519Z,21.44
2023-05-20T10:36:32.115Z,21.43
2023-05-20T10:39:00.343Z,21.78
2023-05-20T10:41:31.278Z,21.84
2023-05-20T10:42:41.650Z,21.89
2023-05-20T10:44:05.320Z,21.90
2023-05-20T10:47:59.984Z,21.88
2023-05-20T10:49:20.473Z,21.84
2023-05-20T10:50:39.415Z,21.67
2023-05-20T10:51:50.171Z,21.74
2023-05-20T10:53:04.874Z,21.73
2023-05-20T10:54:15.442Z,21.67
2023-05-20T10:55:24.989Z,21.80
2023-05-20T10:57:53.305Z,21.91
2023-05-20T10:59:03.153Z,21.84
2023-05-20T11:01:31.598Z,22.10
2023-05-20T11:02:42.485Z,21.91
2023-05-20T11:05:12.808Z,21.92
2023-05-20T11:07:45.096Z,22.09
2023-05-20T11:08:54.645Z,21.80
2023-05-20T11:11:24.740Z,22.09
2023-05-20T11:13:53.132Z,22.10
2023-05-20T11:16:18.642Z,22.27
2023-05-20T11:18:42.344Z,22.25
2023-05-20T11:19:51.606Z,22.12
2023-05-20T11:21:01.941Z,21.84
2023-05-20T11:23:29.140Z,21.90
2023-05-20T11:25:54.728Z,22.10
2023-05-20T11:28:20.896Z,22.08
2023-05-20T11:30:48.301Z,22.13
2023-05-20T11:33:13.823Z,22.32
2023-05-20T11:35:42.098Z,22.30
2023-05-20T11:38:13.435Z,22.17
2023-05-20T11:40:49.871Z,22.22
2023-05-20T11:41:49.739Z,22.22
2023-05-20T11:44:22.185Z,22.19
2023-05-20T11:45:44.929Z,22.08
2023-05-20T11:48:19.321Z,22.38
2023-05-20T11:50:45.792Z,22.51
2023-05-20T11:51:54.569Z,22.49
2023-05-20T11:54:22.176Z,22.25
2023-05-20T11:56:48.228Z,21.94
2023-05-20T11:59:14.369Z,21.85
2023-05-20T12:01:42.883Z,22.03
2023-05-20T12:04:27.354Z,22.04
2023-05-20T12:06:52.769Z,21.82
2023-05-20T12:09:19.178Z,22.02
2023-05-20T12:11:44.969Z,22.09
2023-05-20T12:12:54.563Z,22.10
2023-05-20T12:15:19.138Z,22.41
2023-05-20T12:17:51.317Z,22.48
2023-05-20T12:19:00.796Z,22.37
2023-05-20T12:21:30.986Z,22.64
2023-05-20T12:23:58.401Z,22.51
2023-05-20T12:25:08.352Z,22.45
2023-05-20T12:26:17.949Z,22.38
2023-05-20T12:28:43.221Z,22.67
2023-05-20T12:31:08.107Z,22.26
2023-05-20T12:33:33.614Z,22.37
2023-05-20T12:34:42.336Z,22.26
2023-05-20T12:37:07.768Z,22.34
2023-05-20T12:39:31.464Z,22.34
2023-05-20T12:41:57.760Z,22.37
2023-05-20T12:43:07.932Z,22.20
2023-05-20T12:45:31.702Z,21.98
2023-05-20T12:47:56.970Z,22.14
2023-05-20T12:50:23.509Z,22.39
2023-05-20T12:51:34.383Z,22.29
2023-05-20T12:54:00.769Z,22.24
2023-05-20T12:56:27.159Z,22.22
2023-05-20T12:57:36.081Z,22.20
2023-05-20T12:58:46.090Z,22.27
2023-05-20T12:59:55.518Z,22.28
2023-05-20T13:02:21.354Z,22.39
2023-05-20T13:03:31.982Z,22.35
2023-05-20T13:05:57.438Z,22.42
2023-05-20T13:08:22.244Z,22.55
2023-05-20T13:10:48.928Z,22.12
2023-05-20T13:11:58.772Z,22.12
2023-05-20T13:14:25.034Z,22.40
2023-05-20T13:16:54.975Z,22.30
2023-05-20T13:19:22.868Z,22.27
2023-05-20T13:21:49.738Z,22.18
2023-05-20T13:22:58.403Z,22.16
2023-05-20T13:24:08.076Z,21.90
2023-05-20T13:26:32.463Z,21.92
2023-05-20T13:28:57.582Z,22.29
2023-05-20T13:31:24.457Z,22.27
2023-05-20T13:32:33.836Z,21.95
2023-05-20T13:34:59.209Z,21.98
2023-05-20T13:37:23.200Z,22.09
2023-05-20T13:39:47.953Z,22.13
2023-05-20T13:42:13.678Z,22.31
2023-05-20T13:43:23.538Z,22.28
2023-05-20T13:44:32.874Z,22.34
2023-05-20T13:45:42.844Z,22.35
2023-05-20T13:46:51.843Z,22.45
2023-05-20T13:48:01.601Z,22.38
2023-05-20T13:49:10.935Z,22.45
2023-05-20T13:51:35.446Z,22.62
2023-05-20T13:53:59.170Z,22.69
2023-05-20T13:56:26.588Z,22.69
2023-05-20T13:58:50.265Z,22.80
2023-05-20T14:01:23.077Z,22.54
2023-05-20T14:02:32.805Z,22.37
2023-05-20T14:03:42.110Z,22.26
2023-05-20T14:06:08.063Z,22.30
2023-05-20T14:08:32.887Z,22.33
2023-05-20T14:09:43.871Z,22.33
2023-05-20T14:12:12.376Z,22.25
2023-05-20T14:14:39.944Z,22.20
2023-05-20T14:17:05.594Z,22.30
2023-05-20T14:18:16.105Z,22.05
2023-05-20T14:21:02.570Z,22.45
2023-05-20T14:23:28.053Z,22.61
2023-05-20T14:25:51.951Z,22.52
2023-05-20T14:28:17.398Z,22.37
2023-05-20T14:30:42.369Z,22.33
2023-05-20T14:33:08.574Z,22.44
2023-05-20T14:35:35.191Z,22.57
2023-05-20T14:36:47.644Z,22.50
2023-05-20T14:39:11.700Z,22.67
2023-05-20T14:40:21.297Z,22.35
2023-05-20T14:42:46.514Z,22.24
2023-05-20T14:43:56.042Z,22.03
2023-05-20T14:46:22.109Z,22.17
2023-05-20T14:48:45.890Z,22.29
2023-05-20T14:51:17.464Z,22.57
2023-05-20T14:53:42.260Z,22.54
2023-05-20T14:54:51.329Z,22.43
2023-05-20T14:57:15.560Z,22.29
2023-05-20T14:59:41.115Z,22.29
2023-05-20T15:00:51.484Z,22.17
2023-05-20T15:03:15.903Z,22.40
2023-05-20T15:05:40.856Z,22.26
2023-05-20T15:06:50.548Z,22.21
2023-05-20T15:09:14.827Z,22.35
2023-05-20T15:10:24.866Z,22.31
2023-05-20T15:11:33.786Z,22.06
2023-05-20T15:13:58.594Z,22.05
2023-05-20T15:16:24.852Z,21.80
2023-05-20T15:17:42.630Z,21.61
2023-05-20T15:20:10.223Z,21.48
2023-05-20T15:21:19.958Z,21.41
2023-05-20T15:22:30.372Z,21.46
2023-05-20T15:24:54.202Z,21.53
2023-05-20T15:27:19.531Z,21.58
2023-05-20T15:29:43.925Z,21.64
2023-05-20T15:32:11.027Z,21.72
2023-05-20T15:33:20.573Z,21.78
2023-05-20T15:34:30.293Z,21.83
2023-05-20T15:35:39.772Z,21.68
2023-05-20T15:36:48.585Z,21.74
2023-05-20T15:39:13.338Z,21.93
2023-05-20T15:40:23.494Z,21.83
2023-05-20T15:42:47.302Z,21.52
2023-05-20T15:45:11.812Z,21.52
2023-05-20T15:47:40.557Z,21.73
2023-05-20T15:50:08.150Z,21.95
2023-05-20T15:52:33.227Z,21.92
2023-05-20T15:54:58.557Z,21.78
2023-05-20T15:57:26.528Z,21.87
2023-05-20T15:59:50.573Z,21.73
2023-05-20T16:02:36.598Z,21.55
2023-05-20T16:05:01.508Z,21.54
2023-05-20T16:07:28.469Z,21.54
2023-05-20T16:09:54.614Z,21.61
2023-05-20T16:11:05.573Z,21.46
2023-05-20T16:13:32.081Z,21.66
2023-05-20T16:15:57.198Z,21.60
2023-05-20T16:17:06.611Z,21.38
2023-05-20T16:19:30.501Z,21.29
2023-05-20T16:21:54.479Z,21.43
2023-05-20T16:24:20.517Z,21.55
2023-05-20T16:26:44.399Z,21.66
2023-05-20T16:29:08.764Z,21.54
2023-05-20T16:31:33.721Z,21.54
2023-05-20T16:33:57.650Z,21.55
2023-05-20T16:36:23.729Z,21.41
2023-05-20T16:37:34.292Z,21.15
2023-05-20T16:39:58.762Z,21.22
2023-05-20T16:41:07.657Z,21.09
2023-05-20T16:43:31.464Z,21.07
2023-05-20T16:45:56.384Z,21.07
2023-05-20T16:47:06.665Z,20.95
2023-05-20T16:49:30.440Z,20.84
2023-05-20T16:50:43.433Z,20.92
2023-05-20T16:53:08.216Z,21.18
2023-05-20T16:54:17.915Z,21.09
2023-05-20T16:55:28.114Z,21.01
2023-05-20T16:56:37.874Z,20.98
2023-05-20T16:57:47.288Z,20.94
2023-05-20T17:00:13.063Z,20.93
2023-05-20T17:02:38.001Z,21.02
2023-05-20T17:03:48.486Z,20.82
2023-05-20T17:04:58.174Z,20.84
2023-05-20T17:07:22.878Z,21.00
2023-05-20T17:09:46.813Z,20.95
2023-05-20T17:10:59.706Z,20.84
2023-05-20T17:13:24.505Z,20.91
2023-05-20T17:15:48.960Z,20.77
2023-05-20T17:19:21.246Z,20.80
2023-05-20T17:20:30.737Z,20.83
2023-05-20T17:21:40.725Z,20.85
2023-05-20T17:22:49.938Z,20.76
2023-05-20T17:25:14.301Z,20.76
2023-05-20T17:27:39.040Z,20.72
2023-05-20T17:28:48.559Z,20.63
2023-05-20T17:31:14.718Z,20.63
2023-05-20T17:33:39.161Z,20.50
2023-05-20T17:36:03.492Z,20.58
2023-05-20T17:37:13.236Z,20.31
2023-05-20T17:39:38.775Z,20.43
2023-05-20T17:40:49.529Z,20.27
2023-05-20T17:41:57.918Z,20.17
2023-05-20T17:43:07.749Z,20.28
2023-05-20T17:45:32.292Z,20.40
2023-05-20T17:46:42.199Z,20.16
2023-05-20T17:47:51.519Z,20.27
2023-05-20T17:49:01.728Z,20.07
2023-05-20T17:51:26.161Z,20.02
2023-05-20T17:53:50.197Z,20.00
2023-05-20T17:56:15.763Z,19.93
2023-05-20T17:57:27.481Z,19.80
2023-05-20T17:59:51.732Z,19.98
2023-05-20T18:02:16.820Z,19.76
2023-05-20T18:04:42.425Z,19.89
2023-05-20T18:05:51.422Z,19.62
2023-05-20T18:08:18.824Z,19.79
2023-05-20T18:10:43.473Z,19.79
2023-05-20T18:11:54.463Z,19.80
2023-05-20T18:14:22.360Z,19.78
2023-05-20T18:17:05.904Z,19.81
2023-05-20T18:19:30.358Z,19.59
2023-05-20T18:21:55.878Z,19.60
2023-05-20T18:23:05.075Z,19.39
2023-05-20T18:25:31.465Z,19.53
2023-05-20T18:27:56.923Z,19.41
2023-05-20T18:29:05.802Z,19.27
2023-05-20T18:31:30.552Z,19.36
2023-05-20T18:33:54.507Z,19.31
2023-05-20T18:35:03.520Z,19.18
2023-05-20T18:36:13.912Z,19.12
2023-05-20T18:38:41.335Z,19.28
2023-05-20T18:41:06.833Z,19.12
2023-05-20T18:42:16.634Z,19.18
2023-05-20T18:44:41.528Z,19.25
2023-05-20T18:47:06.736Z,19.15
2023-05-20T18:49:31.459Z,19.06
2023-05-20T18:51:56.468Z,19.04
2023-05-20T18:54:26.596Z,18.90
2023-05-20T18:56:50.690Z,19.04
2023-05-20T18:59:15.537Z,18.97
2023-05-20T19:01:40.961Z,19.10
2023-05-20T19:04:05.688Z,19.00
2023-05-20T19:06:30.971Z,18.89
2023-05-20T19:07:40.072Z,18.87
2023-05-20T19:10:06.830Z,19.01
2023-05-20T19:12:31.947Z,18.86
2023-05-20T19:14:56.795Z,18.94
2023-05-20T19:16:10.055Z,18.86
2023-05-20T19:17:21.330Z,18.76
2023-05-20T19:19:46.750Z,18.87
2023-05-20T19:22:11.175Z,18.60
2023-05-20T19:24:38.003Z,18.67
2023-05-20T19:27:02.744Z,18.57
2023-05-20T19:29:27.203Z,18.50
2023-05-20T19:31:52.845Z,18.47
2023-05-20T19:33:05.488Z,18.40
2023-05-20T19:35:30.015Z,18.46
2023-05-20T19:37:56.150Z,18.47
2023-05-20T19:40:23.019Z,18.44
2023-05-20T19:42:50.115Z,18.39
2023-05-20T19:45:15.120Z,18.33
2023-05-20T19:46:24.171Z,18.35
2023-05-20T19:48:48.538Z,18.45
2023-05-20T19:51:12.471Z,18.36
2023-05-20T19:53:37.720Z,18.21
2023-05-20T19:56:02.872Z,18.15
2023-05-20T19:58:27.625Z,18.18
2023-05-20T19:59:38.248Z,18.05
2023-05-20T20:02:02.776Z,18.06
2023-05-20T20:03:12.704Z,17.92
2023-05-20T20:04:21.815Z,17.95
2023-05-20T20:05:31.000Z,17.91
2023-05-20T20:06:40.847Z,17.98
2023-05-20T20:09:05.868Z,17.94
2023-05-20T20:11:30.685Z,17.99
2023-05-20T20:13:54.533Z,18.02
2023-05-20T20:16:23.166Z,17.96
2023-05-20T20:17:34.096Z,17.85
2023-05-20T20:18:44.137Z,17.92
2023-05-20T20:21:11.170Z,17.81
2023-05-20T20:23:36.864Z,17.80
2023-05-20T20:24:46.533Z,17.78
2023-05-20T20:25:56.884Z,17.65
2023-05-20T20:27:06.176Z,17.72
2023-05-20T20:29:30.716Z,17.75
2023-05-20T20:31:55.293Z,17.62
2023-05-20T20:33:08.959Z,17.63
2023-05-20T20:34:18.739Z,17.64
2023-05-20T20:36:44.612Z,17.75
2023-05-20T20:37:57.053Z,17.63
2023-05-20T20:40:22.965Z,17.79
2023-05-20T20:41:32.916Z,17.68
2023-05-20T20:44:02.582Z,17.69
2023-05-20T20:46:54.484Z,17.67
2023-05-20T20:49:23.848Z,17.59
2023-05-20T20:51:51.908Z,17.62
2023-05-20T20:54:16.135Z,17.46
2023-05-20T20:56:45.442Z,17.57
2023-05-20T20:57:57.082Z,17.54
2023-05-20T20:59:10.047Z,17.54
2023-05-20T21:01:37.331Z,17.55
2023-05-20T21:02:47.287Z,17.49
2023-05-20T21:05:15.034Z,17.61
2023-05-20T21:07:40.789Z,17.61
2023-05-20T21:10:06.955Z,17.42
2023-05-20T21:11:17.820Z,17.19
2023-05-20T21:13:43.525Z,17.43
2023-05-20T21:16:07.198Z,17.37
2023-05-20T21:18:31.596Z,17.40
2023-05-20T21:20:55.818Z,17.36
2023-05-20T21:23:22.028Z,17.45
2023-05-20T21:25:46.669Z,17.32
2023-05-20T21:28:10.615Z,17.15
2023-05-20T21:29:20.578Z,17.02
2023-05-20T21:31:45.557Z,17.19
2023-05-20T21:32:55.912Z,17.10
2023-05-20T21:35:20.073Z,17.19
2023-05-20T21:36:30.586Z,16.98
2023-05-20T21:37:40.839Z,16.89
2023-05-20T21:40:07.232Z,16.93
2023-05-20T21:42:31.861Z,16.66
2023-05-20T21:44:56.148Z,16.78
2023-05-20T21:47:21.278Z,16.76
2023-05-20T21:49:46.026Z,16.70
2023-05-20T21:52:10.778Z,16.59
2023-05-20T21:53:21.278Z,16.51
2023-05-20T21:55:45.530Z,16.61
2023-05-20T21:56:55.609Z,16.54
2023-05-20T21:59:20.776Z,16.59
2023-05-20T22:01:46.206Z,16.59
2023-05-20T22:04:11.406Z,16.51
2023-05-20T22:06:38.327Z,16.42
2023-05-20T22:07:47.938Z,16.17
2023-05-20T22:10:16.737Z,16.37
2023-05-20T22:12:43.649Z,16.51
2023-05-20T22:13:53.067Z,16.27
2023-05-20T22:16:17.786Z,16.17
2023-05-20T22:17:27.561Z,16.06
2023-05-20T22:19:53.566Z,16.27
2023-05-20T22:21:03.515Z,15.88
2023-05-20T22:23:29.292Z,15.87
2023-05-20T22:25:54.454Z,15.96
2023-05-20T22:28:38.498Z,15.89
2023-05-20T22:29:47.327Z,15.80
2023-05-20T22:32:11.538Z,15.72
2023-05-20T22:34:38.081Z,15.72
2023-05-20T22:35:47.954Z,15.63
2023-05-20T22:38:12.492Z,15.56
2023-05-20T22:40:38.762Z,15.67
2023-05-20T22:43:02.807Z,15.70
2023-05-20T22:45:27.738Z,15.46
2023-05-20T22:46:37.736Z,15.40
2023-05-20T22:47:47.645Z,15.35
2023-05-20T22:50:13.199Z,15.29
2023-05-20T22:51:24.007Z,15.30
2023-05-20T22:52:33.366Z,15.28
2023-05-20T22:53:42.432Z,15.38
2023-05-20T22:56:07.588Z,15.25
2023-05-20T22:58:33.628Z,15.12
2023-05-20T22:59:42.791Z,14.94
2023-05-20T23:00:53.008Z,14.81
2023-05-20T23:03:16.897Z,15.05
2023-05-20T23:05:40.651Z,15.04
2023-05-20T23:08:07.176Z,15.13
2023-05-20T23:09:16.536Z,14.85
2023-05-20T23:11:41.734Z,15.02
2023-05-20T23:12:51.463Z,14.83
2023-05-20T23:14:00.996Z,14.81
2023-05-20T23:15:11.381Z,14.81
2023-05-20T23:16:21.591Z,14.90
2023-05-20T23:18:46.429Z,14.95
2023-05-20T23:21:32.163Z,15.09
2023-05-20T23:23:57.649Z,15.02
2023-05-20T23:26:23.816Z,15.06
2023-05-20T23:28:48.395Z,14.94
2023-05-20T23:31:16.146Z,15.12
2023-05-20T23:33:42.326Z,15.07
2023-05-20T23:34:55.054Z,14.97
2023-05-20T23:37:19.852Z,14.88
2023-05-20T23:39:47.107Z,14.93
2023-05-20T23:42:11.445Z,14.76
2023-05-20T23:44:36.114Z,14.84
2023-05-20T23:45:46.358Z,14.68
2023-05-20T23:48:11.981Z,14.83
2023-05-20T23:50:38.591Z,14.70
2023-05-20T23:51:48.226Z,14.58
2023-05-20T23:52:57.741Z,14.61
2023-05-20T23:54:07.355Z,14.55
2023-05-20T23:56:33.382Z,14.59
2023-05-20T23:57:43.550Z,14.54
2023-05-20T23:58:52.566Z,14.53
